Time;durP1;ratioP1;P1;durP2;ratioP2;P2;SDS_P1;SDS_P2;PMS_P1;PMS_P2;Temp;Humidity;BMP_temperature;BMP_pressure;BME280_temperature;BME280_humidity;BME280_pressure;Samples;Min_cycle;Max_cycle;Signal;HPM_P1;HPM_P2
2022/11/27 00:01:23;;;;;;;10.97;7.77;;;0.80;99.90;;;;;;5022322;28;20241;-69
2022/11/27 00:03:50;;;;;;;9.97;7.67;;;0.90;99.90;;;;;;5029810;28;20210;-66
2022/11/27 00:06:19;;;;;;;7.57;6.27;;;1.00;99.90;;;;;;5029613;28;20206;-65
2022/11/27 00:08:46;;;;;;;9.57;6.90;;;1.00;99.90;;;;;;5028866;28;20213;-65
2022/11/27 00:11:19;;;;;;;9.07;6.00;;;1.10;99.90;;;;;;5023444;28;20199;-69
2022/11/27 00:13:46;;;;;;;10.30;7.50;;;1.10;99.90;;;;;;5019026;28;20220;-66
2022/11/27 00:16:14;;;;;;;6.53;5.83;;;1.20;99.90;;;;;;5029161;28;20225;-64
2022/11/27 00:18:41;;;;;;;7.87;6.13;;;1.20;99.90;;;;;;5026598;28;20212;-68
2022/11/27 00:21:12;;;;;;;7.63;5.73;;;1.30;99.90;;;;;;5024743;28;20269;-68
2022/11/27 00:23:39;;;;;;;6.40;5.43;;;1.30;99.90;;;;;;5015203;28;20202;-69
2022/11/27 00:26:06;;;;;;;6.00;5.40;;;1.30;99.90;;;;;;5015917;28;20203;-69
2022/11/27 00:28:35;;;;;;;6.37;5.37;;;1.30;99.90;;;;;;5025711;28;20217;-64
2022/11/27 00:31:05;;;;;;;6.23;5.03;;;1.30;99.90;;;;;;5028146;28;20210;-66
2022/11/27 00:33:32;;;;;;;8.07;5.77;;;1.30;99.90;;;;;;5028277;28;20229;-69
2022/11/27 00:36:02;;;;;;;6.60;5.27;;;1.30;99.90;;;;;;5027995;28;20214;-69
2022/11/27 00:38:29;;;;;;;5.70;5.03;;;1.30;99.90;;;;;;5028904;28;20205;-66
2022/11/27 00:40:59;;;;;;;5.97;5.10;;;1.30;99.90;;;;;;5026159;28;20206;-67
2022/11/27 00:43:25;;;;;;;5.97;5.20;;;1.40;99.90;;;;;;5022524;28;20605;-66
2022/11/27 00:45:53;;;;;;;6.00;5.23;;;1.40;99.90;;;;;;5022697;28;20206;-66
2022/11/27 00:48:20;;;;;;;6.93;5.33;;;1.30;99.90;;;;;;5021851;28;20202;-66
2022/11/27 00:50:47;;;;;;;7.23;5.70;;;1.30;99.90;;;;;;5028515;28;20218;-70
2022/11/27 00:53:14;;;;;;;8.93;5.73;;;1.30;99.90;;;;;;5027839;28;20241;-65
2022/11/27 00:55:40;;;;;;;7.00;5.20;;;1.30;99.90;;;;;;5027696;28;20199;-65
2022/11/27 00:58:07;;;;;;;6.17;5.23;;;1.30;99.90;;;;;;5028297;28;20207;-64
2022/11/27 01:00:34;;;;;;;6.53;5.13;;;1.30;99.90;;;;;;5028446;28;20206;-64
2022/11/27 02:58:35;;;;;;;7.67;6.30;;;0.60;99.90;;;;;;5129047;27;20531;-69
2022/11/27 03:01:04;;;;;;;10.10;6.60;;;1.10;99.90;;;;;;5107693;28;20210;-69
2022/11/27 03:03:35;;;;;;;8.00;6.07;;;1.20;99.90;;;;;;5108359;28;20205;-69
2022/11/27 03:06:10;;;;;;;7.43;6.10;;;1.20;99.90;;;;;;5108992;28;20321;-69
2022/11/27 03:08:42;;;;;;;9.07;6.20;;;1.20;99.90;;;;;;5109228;28;20194;-69
2022/11/27 03:11:10;;;;;;;10.70;6.57;;;1.10;99.90;;;;;;5092039;28;20204;-69
2022/11/27 03:13:42;;;;;;;11.03;6.80;;;1.10;99.90;;;;;;5088677;28;20208;-69
2022/11/27 03:16:14;;;;;;;9.80;6.83;;;1.10;99.90;;;;;;5088405;28;20212;-68
2022/11/27 03:18:47;;;;;;;10.10;7.23;;;1.10;99.90;;;;;;5088837;28;20642;-69
2022/11/27 03:21:23;;;;;;;9.97;6.80;;;1.10;99.90;;;;;;5106105;28;20621;-69
2022/11/27 03:23:50;;;;;;;11.07;7.60;;;1.20;99.90;;;;;;5109138;28;20195;-69
2022/11/27 03:26:17;;;;;;;13.90;8.70;;;1.20;99.90;;;;;;5108466;28;20199;-69
2022/11/27 03:28:45;;;;;;;13.27;8.83;;;1.30;99.90;;;;;;5109041;28;20682;-69
2022/11/27 03:31:13;;;;;;;14.00;9.27;;;1.30;99.90;;;;;;5107397;28;20212;-69
2022/11/27 03:33:40;;;;;;;14.40;9.00;;;1.30;99.90;;;;;;5108702;28;20212;-68
2022/11/27 03:36:15;;;;;;;15.70;9.30;;;1.30;99.90;;;;;;5107503;28;20211;-70
2022/11/27 03:38:45;;;;;;;14.50;8.57;;;1.30;99.90;;;;;;5108588;28;20195;-69
2022/11/27 03:41:22;;;;;;;15.77;8.60;;;1.30;99.90;;;;;;5107965;28;20601;-69
2022/11/27 03:44:00;;;;;;;12.50;7.87;;;1.20;99.90;;;;;;5107940;28;20203;-69
2022/11/27 03:46:39;;;;;;;10.17;7.13;;;1.20;99.90;;;;;;5108451;28;20180;-69
2022/11/27 03:49:13;;;;;;;12.30;7.83;;;1.20;99.90;;;;;;5108265;28;20188;-69
2022/11/27 03:51:45;;;;;;;12.70;9.30;;;1.20;99.90;;;;;;5087729;28;20649;-69
2022/11/27 03:54:23;;;;;;;14.40;8.70;;;1.20;99.90;;;;;;5087859;28;20203;-70
2022/11/27 03:56:59;;;;;;;13.83;8.17;;;1.20;99.90;;;;;;5105361;28;20243;-70
2022/11/27 03:59:31;;;;;;;15.63;8.20;;;1.20;99.90;;;;;;5094235;28;20188;-69
2022/11/27 04:01:58;;;;;;;12.03;8.50;;;1.20;99.90;;;;;;5094360;28;20198;-69
2022/11/27 04:04:25;;;;;;;15.67;8.30;;;1.20;99.90;;;;;;5094521;28;20203;-69
2022/11/27 04:06:52;;;;;;;14.23;8.80;;;1.20;99.90;;;;;;5094212;28;20226;-69
2022/11/27 04:09:19;;;;;;;13.90;9.27;;;1.10;99.90;;;;;;5094057;28;20200;-68
2022/11/27 04:11:45;;;;;;;13.73;8.07;;;1.10;99.90;;;;;;5092295;28;20200;-69
2022/11/27 04:14:12;;;;;;;10.97;7.93;;;1.10;99.90;;;;;;5093582;28;20204;-69
2022/11/27 04:16:40;;;;;;;14.33;8.53;;;1.10;99.90;;;;;;5093688;28;20231;-69
2022/11/27 04:19:08;;;;;;;11.80;8.23;;;1.20;99.90;;;;;;5094087;28;20207;-68
2022/11/27 04:21:35;;;;;;;14.73;8.43;;;1.20;99.90;;;;;;5093854;28;20211;-69
2022/11/27 04:24:01;;;;;;;13.53;9.03;;;1.20;99.90;;;;;;5093926;28;20541;-69
2022/11/27 04:26:28;;;;;;;14.90;8.67;;;1.20;99.90;;;;;;5094455;28;20200;-69
2022/11/27 04:28:55;;;;;;;13.67;9.00;;;1.10;99.90;;;;;;5093531;28;20222;-69
2022/11/27 04:31:22;;;;;;;13.30;8.63;;;1.20;99.90;;;;;;5092645;28;20211;-69
2022/11/27 04:33:50;;;;;;;13.57;9.10;;;1.20;99.90;;;;;;5073578;28;20204;-70
2022/11/27 04:36:17;;;;;;;15.23;8.93;;;1.20;99.90;;;;;;5074295;28;20205;-69
2022/11/27 04:38:43;;;;;;;16.27;9.27;;;1.20;99.90;;;;;;5094042;28;20210;-70
2022/11/27 04:41:10;;;;;;;14.87;9.50;;;1.20;99.90;;;;;;5093720;28;20212;-69
2022/11/27 04:43:37;;;;;;;18.70;10.17;;;1.20;99.90;;;;;;5093632;28;20660;-70
2022/11/27 04:46:04;;;;;;;13.27;8.67;;;1.20;99.90;;;;;;5093617;28;20204;-68
2022/11/27 04:48:31;;;;;;;15.83;10.23;;;1.20;99.90;;;;;;5093246;28;20210;-68
2022/11/27 04:50:59;;;;;;;14.37;9.60;;;1.20;99.90;;;;;;5093290;28;20206;-69
2022/11/27 04:53:26;;;;;;;17.27;10.17;;;1.20;99.90;;;;;;5093810;28;20681;-68
2022/11/27 04:55:52;;;;;;;15.67;10.33;;;1.20;99.90;;;;;;5093386;28;20204;-69
2022/11/27 04:58:19;;;;;;;17.97;10.60;;;1.20;99.90;;;;;;5091667;28;20236;-68
2022/11/27 05:00:46;;;;;;;19.13;11.10;;;1.20;99.90;;;;;;5093256;28;20238;-69
2022/11/27 05:03:13;;;;;;;17.97;11.50;;;1.10;99.90;;;;;;5093533;28;20203;-69
2022/11/27 05:05:39;;;;;;;17.23;10.73;;;1.10;99.90;;;;;;5091783;28;20215;-69
2022/11/27 05:08:07;;;;;;;17.03;11.47;;;1.20;99.90;;;;;;5093375;28;20196;-70
2022/11/27 05:10:34;;;;;;;17.63;10.97;;;1.20;99.90;;;;;;5089773;28;20581;-68
2022/11/27 05:13:01;;;;;;;19.33;11.50;;;1.20;99.90;;;;;;5092863;28;20196;-69
2022/11/27 05:15:28;;;;;;;18.30;11.30;;;1.10;99.90;;;;;;5093412;28;20200;-68
2022/11/27 05:17:55;;;;;;;18.07;10.87;;;1.10;99.90;;;;;;5092915;28;20689;-70
2022/11/27 05:20:21;;;;;;;17.30;10.23;;;1.00;99.90;;;;;;5091368;28;20649;-69
2022/11/27 05:22:48;;;;;;;14.30;9.97;;;1.00;99.90;;;;;;5081927;28;20560;-69
2022/11/27 05:25:16;;;;;;;16.43;10.47;;;1.00;99.90;;;;;;5093298;28;20526;-70
2022/11/27 05:27:43;;;;;;;16.97;10.47;;;1.00;99.90;;;;;;5092818;28;20661;-70
2022/11/27 05:30:10;;;;;;;18.43;10.50;;;1.00;99.90;;;;;;5092753;28;20203;-69
2022/11/27 05:32:38;;;;;;;17.60;11.47;;;1.00;99.90;;;;;;5091774;28;20207;-70
2022/11/27 05:35:05;;;;;;;16.50;10.23;;;1.10;99.90;;;;;;5092529;28;20270;-69
2022/11/27 05:37:32;;;;;;;16.00;10.40;;;1.10;99.90;;;;;;5091177;28;20220;-70
2022/11/27 05:39:59;;;;;;;19.30;11.00;;;1.00;99.90;;;;;;5092398;28;20204;-70
2022/11/27 05:42:27;;;;;;;18.20;11.63;;;1.00;99.90;;;;;;5092850;28;20200;-70
2022/11/27 05:44:53;;;;;;;18.70;12.00;;;1.10;99.90;;;;;;5090577;28;20382;-69
2022/11/27 05:47:20;;;;;;;17.60;11.77;;;1.10;99.90;;;;;;5072348;28;20330;-71
2022/11/27 05:49:47;;;;;;;20.33;11.93;;;1.10;99.90;;;;;;5072254;28;20207;-69
2022/11/27 05:52:14;;;;;;;21.73;11.53;;;1.20;99.90;;;;;;5072014;28;20200;-70
2022/11/27 05:54:41;;;;;;;20.33;10.83;;;1.20;99.90;;;;;;5071718;28;20201;-70
2022/11/27 05:57:07;;;;;;;15.20;10.20;;;1.10;99.90;;;;;;5090983;28;20607;-69
2022/11/27 05:59:36;;;;;;;17.90;11.50;;;1.10;99.90;;;;;;5092151;28;20226;-70
2022/11/27 06:02:03;;;;;;;17.03;10.67;;;1.20;99.90;;;;;;5091921;28;20200;-69
2022/11/27 06:04:33;;;;;;;15.33;10.73;;;1.20;99.90;;;;;;5092425;28;20290;-71
2022/11/27 06:06:59;;;;;;;17.50;11.17;;;1.20;99.90;;;;;;5089896;28;20220;-70
2022/11/27 06:09:26;;;;;;;18.33;10.80;;;1.10;99.90;;;;;;5089596;28;20200;-69
2022/11/27 06:11:53;;;;;;;20.30;10.83;;;1.10;99.90;;;;;;5090258;28;20223;-68
2022/11/27 06:14:20;;;;;;;21.07;11.40;;;1.20;99.90;;;;;;5092485;28;20203;-70
2022/11/27 10:40:08;;;;;;;14.17;9.80;;;0.90;99.90;;;;;;5594554;22;20605;-66
2022/11/27 10:42:39;;;;;;;11.73;9.70;;;0.90;99.90;;;;;;5081834;28;20206;-68
2022/11/27 10:45:17;;;;;;;11.60;10.17;;;1.00;99.90;;;;;;5087662;28;20206;-68
2022/11/27 10:47:47;;;;;;;13.20;10.70;;;1.10;99.90;;;;;;5088064;28;20200;-66
2022/11/27 10:50:15;;;;;;;12.47;9.30;;;1.10;99.90;;;;;;5087679;28;20204;-69
2022/11/27 10:52:50;;;;;;;10.03;7.70;;;1.20;99.90;;;;;;5088619;28;20208;-64
2022/11/27 10:55:33;;;;;;;8.63;7.47;;;1.20;99.90;;;;;;5086894;28;20210;-64
2022/11/27 10:58:11;;;;;;;9.77;7.80;;;1.20;99.90;;;;;;5085256;28;20218;-64
2022/11/27 11:00:37;;;;;;;10.30;8.17;;;1.30;99.90;;;;;;5087842;28;20191;-64
2022/11/27 11:03:06;;;;;;;14.83;11.80;;;1.30;99.90;;;;;;5077535;28;20220;-65
2022/11/27 11:05:34;;;;;;;11.00;8.10;;;1.30;99.90;;;;;;5079847;28;20236;-66
2022/11/27 11:08:04;;;;;;;10.03;7.43;;;1.30;99.90;;;;;;5074795;28;20581;-65
2022/11/27 11:10:35;;;;;;;10.30;8.17;;;1.30;99.90;;;;;;5071072;28;20548;-66
2022/11/27 11:13:13;;;;;;;11.37;8.77;;;1.30;99.90;;;;;;5068546;28;20231;-66
2022/11/27 11:15:47;;;;;;;8.67;7.60;;;1.40;99.90;;;;;;5068859;28;20569;-65
2022/11/27 11:18:17;;;;;;;10.00;7.80;;;1.30;99.90;;;;;;5079271;28;20222;-67
2022/11/27 11:20:47;;;;;;;10.13;8.00;;;1.30;99.90;;;;;;5077219;28;20212;-66
2022/11/27 11:23:30;;;;;;;11.50;9.27;;;1.40;99.90;;;;;;5068766;28;20208;-67
2022/11/27 11:26:07;;;;;;;10.70;8.43;;;1.40;99.90;;;;;;5069447;28;20657;-67
2022/11/27 11:28:48;;;;;;;9.40;7.10;;;1.50;99.90;;;;;;5068578;28;20621;-65
2022/11/27 11:31:18;;;;;;;8.03;7.07;;;1.50;99.90;;;;;;5070437;28;20200;-67
2022/11/27 11:33:52;;;;;;;9.33;7.50;;;1.40;99.90;;;;;;5068563;28;20235;-67
2022/11/27 11:36:19;;;;;;;9.10;7.47;;;1.40;99.90;;;;;;5066507;28;20679;-67
2022/11/27 11:38:47;;;;;;;10.47;8.10;;;1.40;99.90;;;;;;5086526;28;20220;-66
2022/11/27 11:41:17;;;;;;;11.07;8.73;;;1.50;99.90;;;;;;5084852;28;20450;-67
2022/11/27 11:43:55;;;;;;;10.93;8.40;;;1.50;99.90;;;;;;5067814;28;20211;-68
2022/11/27 11:46:24;;;;;;;10.10;7.83;;;1.50;99.90;;;;;;5066145;28;20552;-66
2022/11/27 11:49:01;;;;;;;14.23;10.60;;;1.50;99.90;;;;;;5066097;28;20207;-67
2022/11/27 11:51:48;;;;;;;14.30;10.67;;;1.60;99.90;;;;;;5054128;28;20190;-67
2022/11/27 11:54:28;;;;;;;12.73;9.80;;;1.50;99.90;;;;;;5055111;28;20189;-66
2022/11/27 11:57:01;;;;;;;16.90;12.50;;;1.50;99.90;;;;;;5056220;28;20216;-68
2022/11/27 11:59:36;;;;;;;12.63;10.43;;;1.40;99.90;;;;;;5055512;28;20221;-67
2022/11/27 12:02:28;;;;;;;11.67;8.97;;;1.40;99.90;;;;;;5054754;28;20185;-67
2022/11/27 12:05:11;;;;;;;11.90;9.63;;;1.50;99.90;;;;;;5054564;28;20194;-68
2022/11/27 12:07:59;;;;;;;12.37;9.27;;;1.50;99.90;;;;;;5054776;28;20189;-67
2022/11/27 12:10:31;;;;;;;10.13;8.07;;;1.50;99.90;;;;;;5054566;28;20190;-66
2022/11/27 12:13:07;;;;;;;10.90;7.67;;;1.60;99.90;;;;;;5054473;28;20554;-67
2022/11/27 12:15:39;;;;;;;10.27;7.90;;;1.60;99.90;;;;;;5054709;28;20227;-65
2022/11/27 12:18:14;;;;;;;10.43;8.30;;;1.60;99.90;;;;;;5054141;28;20200;-68
2022/11/27 12:20:57;;;;;;;10.93;7.53;;;1.60;99.90;;;;;;5054167;28;20200;-67
2022/11/27 12:23:50;;;;;;;10.07;7.67;;;1.60;99.90;;;;;;5054432;28;20193;-64
2022/11/27 12:26:26;;;;;;;12.17;8.30;;;1.70;99.90;;;;;;5051631;28;20209;-69
2022/11/27 12:29:16;;;;;;;9.63;7.40;;;1.70;99.90;;;;;;5054313;28;20543;-66
2022/11/27 12:32:04;;;;;;;12.57;9.60;;;1.80;99.90;;;;;;5053824;28;20189;-66
2022/11/27 12:34:44;;;;;;;12.30;9.90;;;1.90;99.90;;;;;;5054031;28;20201;-67
2022/11/27 18:36:36;;;;;;;11.87;8.90;;;0.40;99.90;;;;;;5020447;28;20599;-65
2022/11/27 18:39:04;;;;;;;9.50;7.70;;;1.10;99.90;;;;;;5001252;28;20208;-67
2022/11/27 18:41:31;;;;;;;12.60;8.43;;;1.20;99.90;;;;;;5018729;28;20199;-67
2022/11/27 18:43:59;;;;;;;12.63;8.40;;;1.10;99.90;;;;;;5085084;28;20241;-67
2022/11/27 18:46:26;;;;;;;12.93;8.97;;;1.10;99.90;;;;;;5003564;28;20213;-64
2022/11/27 18:48:52;;;;;;;13.23;10.63;;;1.10;99.90;;;;;;4986538;28;20214;-66
2022/11/27 18:51:21;;;;;;;15.53;11.47;;;1.20;99.90;;;;;;5004162;28;20203;-67
2022/11/27 18:53:51;;;;;;;13.73;10.00;;;1.20;99.90;;;;;;4996752;28;20203;-66
2022/11/27 18:56:19;;;;;;;12.37;8.87;;;1.20;99.90;;;;;;4997879;28;20205;-65
2022/11/27 18:58:46;;;;;;;10.40;8.10;;;1.20;99.90;;;;;;5003523;28;20203;-67
2022/11/27 19:01:16;;;;;;;13.07;9.30;;;1.20;99.90;;;;;;5005605;28;20209;-65
2022/11/27 19:03:43;;;;;;;15.47;10.73;;;1.10;99.90;;;;;;5004387;28;20199;-65
2022/11/27 19:06:12;;;;;;;12.53;9.27;;;1.10;99.90;;;;;;5005856;28;20206;-64
2022/11/27 19:08:40;;;;;;;11.17;8.60;;;1.10;99.90;;;;;;5005678;28;20207;-64
2022/11/27 19:11:10;;;;;;;12.97;8.93;;;1.00;99.90;;;;;;4999541;28;20203;-66
2022/11/27 19:13:37;;;;;;;13.60;9.33;;;1.00;99.90;;;;;;4995242;28;20203;-66
2022/11/27 19:16:06;;;;;;;12.80;9.40;;;1.00;99.90;;;;;;4995553;28;20223;-68
2022/11/27 19:18:33;;;;;;;12.27;8.83;;;1.10;99.90;;;;;;4996481;28;20203;-68
2022/11/27 19:21:00;;;;;;;12.53;9.60;;;1.10;99.90;;;;;;4994723;28;20208;-66
2022/11/27 19:23:27;;;;;;;10.33;8.63;;;1.10;99.90;;;;;;4996632;28;20687;-66
2022/11/27 19:25:54;;;;;;;10.73;8.63;;;1.20;99.90;;;;;;4994513;28;20223;-67
2022/11/27 19:28:22;;;;;;;11.13;8.27;;;1.20;99.90;;;;;;5014531;28;20195;-65
2022/11/27 19:30:49;;;;;;;9.63;7.10;;;1.30;99.90;;;;;;5000606;28;20195;-65
2022/11/27 19:33:16;;;;;;;10.40;8.37;;;1.20;99.90;;;;;;4995818;28;20209;-67
2022/11/27 19:35:43;;;;;;;10.83;8.23;;;1.20;99.90;;;;;;4996620;28;20242;-69
2022/11/27 19:38:09;;;;;;;11.43;8.40;;;1.20;99.90;;;;;;4991635;28;20215;-68
2022/11/27 19:40:37;;;;;;;11.30;8.70;;;1.20;99.90;;;;;;4993926;28;20210;-66
2022/11/27 19:43:04;;;;;;;12.17;8.87;;;1.10;99.90;;;;;;4989220;28;20207;-68
2022/11/27 19:45:36;;;;;;;11.33;8.57;;;1.10;99.90;;;;;;4992247;28;20203;-67
2022/11/27 19:48:02;;;;;;;17.80;12.57;;;1.10;99.90;;;;;;4989676;28;20204;-66
2022/11/27 19:50:29;;;;;;;17.33;13.20;;;1.20;99.90;;;;;;4991581;28;20207;-68
2022/11/27 19:52:58;;;;;;;12.97;9.90;;;1.30;99.90;;;;;;5039992;28;20204;-69
2022/11/27 19:55:25;;;;;;;10.83;8.57;;;1.30;99.90;;;;;;5016740;28;20231;-67
2022/11/27 19:57:52;;;;;;;10.43;8.00;;;1.30;99.90;;;;;;5212807;23;20610;-69
2022/11/27 20:00:20;;;;;;;10.73;7.87;;;1.30;99.90;;;;;;5114901;28;20200;-70
2022/11/27 20:02:48;;;;;;;10.60;7.90;;;1.30;99.90;;;;;;5114430;28;20208;-71
2022/11/27 20:05:16;;;;;;;9.70;7.63;;;1.30;99.90;;;;;;5114828;28;20203;-69
2022/11/27 20:07:42;;;;;;;11.80;8.67;;;1.40;99.90;;;;;;5112250;28;20690;-70
2022/11/27 20:10:10;;;;;;;10.83;7.93;;;1.40;99.90;;;;;;5114652;27;20226;-70
2022/11/27 20:12:37;;;;;;;12.63;8.90;;;1.40;99.90;;;;;;5114731;28;20214;-69
2022/11/27 20:15:06;;;;;;;13.03;9.30;;;1.40;99.90;;;;;;5114528;28;20306;-69
2022/11/27 20:17:33;;;;;;;12.87;9.30;;;1.40;99.90;;;;;;5113355;28;20200;-72
2022/11/27 20:20:01;;;;;;;11.67;8.80;;;1.40;99.90;;;;;;5115827;27;20195;-68
2022/11/27 20:22:28;;;;;;;13.23;9.63;;;1.40;99.90;;;;;;5135523;27;20221;-71
2022/11/27 20:24:55;;;;;;;12.90;9.57;;;1.40;99.90;;;;;;5112478;28;20203;-72
2022/11/27 20:27:22;;;;;;;11.77;8.90;;;1.50;99.90;;;;;;5112933;28;20210;-72
2022/11/27 20:29:48;;;;;;;12.73;9.47;;;1.50;99.90;;;;;;5113103;28;20306;-70
2022/11/27 20:32:15;;;;;;;11.90;8.97;;;1.40;99.90;;;;;;5111386;28;20200;-72
2022/11/27 20:34:42;;;;;;;10.80;8.23;;;1.50;99.90;;;;;;5117306;27;20221;-71
2022/11/27 20:37:10;;;;;;;10.47;7.90;;;1.40;99.90;;;;;;5112501;27;20206;-70
2022/11/27 20:39:37;;;;;;;10.83;8.07;;;1.40;99.90;;;;;;5119812;27;20537;-71
2022/11/27 20:42:04;;;;;;;9.27;7.20;;;1.50;99.90;;;;;;5130934;27;20198;-70
2022/11/27 20:44:31;;;;;;;10.70;8.03;;;1.40;99.90;;;;;;5117459;27;20213;-72
2022/11/27 20:46:58;;;;;;;9.87;7.30;;;1.40;99.90;;;;;;5113694;28;20765;-71
2022/11/27 20:49:24;;;;;;;9.90;7.30;;;1.40;99.90;;;;;;5113234;28;20293;-65
2022/11/27 20:51:52;;;;;;;10.53;7.43;;;1.50;99.90;;;;;;5113306;28;20202;-66
2022/11/27 20:54:20;;;;;;;11.33;8.53;;;1.40;99.90;;;;;;5113818;28;20656;-67
2022/11/27 20:56:50;;;;;;;12.13;8.80;;;1.40;99.90;;;;;;5113412;28;20203;-69
2022/11/27 20:59:17;;;;;;;8.27;6.80;;;1.40;99.90;;;;;;5100453;28;20192;-66
2022/11/27 21:01:44;;;;;;;8.83;7.03;;;1.40;99.90;;;;;;5113329;27;20199;-68
2022/11/27 21:04:19;;;;;;;9.43;6.97;;;1.40;99.90;;;;;;5095366;28;20676;-67
2022/11/27 21:06:46;;;;;;;10.30;7.67;;;1.40;99.90;;;;;;5092938;28;20655;-68
2022/11/27 21:09:13;;;;;;;8.93;6.77;;;1.40;99.90;;;;;;5104323;28;20315;-64
2022/11/27 21:11:42;;;;;;;7.30;5.70;;;1.40;99.90;;;;;;5112898;28;20264;-68
2022/11/27 21:14:11;;;;;;;9.30;6.83;;;1.40;99.90;;;;;;5110900;28;20223;-66
2022/11/27 21:16:41;;;;;;;9.30;7.10;;;1.30;99.90;;;;;;5112166;28;20346;-66
2022/11/27 21:19:12;;;;;;;8.27;6.43;;;1.30;99.90;;;;;;5113100;28;20331;-67
2022/11/27 21:21:39;;;;;;;6.53;5.07;;;1.30;99.90;;;;;;5112577;28;20244;-68
2022/11/27 21:24:07;;;;;;;7.73;5.73;;;1.30;99.90;;;;;;5113134;28;20286;-66
2022/11/27 21:26:34;;;;;;;7.90;6.43;;;1.30;99.90;;;;;;5109726;28;20207;-67
2022/11/27 21:29:02;;;;;;;7.07;5.97;;;1.40;99.90;;;;;;5110920;28;20626;-66
2022/11/27 21:31:29;;;;;;;9.10;7.07;;;1.40;99.90;;;;;;5111209;28;20209;-65
2022/11/27 21:33:58;;;;;;;8.50;6.70;;;1.40;99.90;;;;;;5115289;27;20210;-67
2022/11/27 21:36:27;;;;;;;6.93;5.87;;;1.40;99.90;;;;;;5115914;27;20227;-68
2022/11/27 21:38:54;;;;;;;8.07;6.53;;;1.40;99.90;;;;;;5113310;28;20209;-71
2022/11/27 21:41:21;;;;;;;8.90;7.23;;;1.40;99.90;;;;;;5112991;28;20671;-67
2022/11/27 21:43:49;;;;;;;10.33;7.87;;;1.40;99.90;;;;;;5112788;28;20206;-66
2022/11/27 21:46:21;;;;;;;30.73;16.83;;;1.50;99.90;;;;;;5112568;28;20209;-67
2022/11/27 21:48:49;;;;;;;24.97;13.53;;;1.50;99.90;;;;;;5111878;27;20566;-70
2022/11/27 21:51:19;;;;;;;15.60;9.63;;;1.50;99.90;;;;;;5115486;27;20206;-69
2022/11/27 21:53:47;;;;;;;12.13;8.40;;;1.60;99.90;;;;;;5111857;28;20191;-69
2022/11/27 21:56:17;;;;;;;14.20;9.93;;;1.60;99.90;;;;;;5112557;28;20252;-69
2022/11/27 22:01:22;;;;;;;11.77;8.40;;;1.60;99.90;;;;;;5069889;28;20208;-65
2022/11/27 22:03:52;;;;;;;11.40;8.30;;;1.60;99.90;;;;;;5066949;28;20217;-66
2022/11/27 22:06:20;;;;;;;10.43;7.90;;;1.50;99.90;;;;;;5051845;28;20646;-65
2022/11/27 22:08:48;;;;;;;9.87;7.57;;;1.50;99.90;;;;;;5052145;28;20209;-65
2022/11/27 22:11:17;;;;;;;10.83;7.97;;;1.50;99.90;;;;;;5051950;28;20548;-64
2022/11/27 22:13:44;;;;;;;10.57;7.47;;;1.60;99.90;;;;;;5070481;28;20212;-66
2022/11/27 22:16:13;;;;;;;9.43;7.87;;;1.60;99.90;;;;;;5072031;28;20213;-64
2022/11/27 22:18:41;;;;;;;10.63;7.33;;;1.60;99.90;;;;;;5072045;28;20204;-65
2022/11/27 22:21:09;;;;;;;10.90;7.83;;;1.50;99.90;;;;;;5064292;28;20208;-66
2022/11/27 22:23:37;;;;;;;7.00;5.43;;;1.50;99.90;;;;;;5071632;28;20594;-68
2022/11/27 22:26:04;;;;;;;5.43;4.50;;;1.50;99.90;;;;;;5064818;28;20201;-66
2022/11/27 22:28:31;;;;;;;8.17;6.33;;;1.50;99.90;;;;;;5071574;28;20207;-66
2022/11/27 22:30:58;;;;;;;6.47;5.27;;;1.30;99.90;;;;;;5071616;28;20209;-67
2022/11/27 22:33:25;;;;;;;4.97;4.23;;;1.30;99.90;;;;;;5071742;28;20212;-65
2022/11/27 22:35:53;;;;;;;7.47;5.77;;;1.20;99.90;;;;;;5071422;28;20227;-64
2022/11/27 22:38:20;;;;;;;8.13;6.23;;;1.20;99.90;;;;;;5065108;28;20202;-66
2022/11/27 22:40:47;;;;;;;8.63;6.57;;;1.30;99.90;;;;;;5051748;28;20658;-68
2022/11/27 22:43:14;;;;;;;6.90;5.67;;;1.30;99.90;;;;;;5065908;28;20585;-67
2022/11/27 22:45:46;;;;;;;6.50;5.27;;;1.30;99.90;;;;;;5080279;28;20196;-68
2022/11/27 22:48:14;;;;;;;4.97;4.30;;;1.20;99.90;;;;;;5075478;28;20291;-65
2022/11/27 22:50:40;;;;;;;5.23;4.10;;;1.30;99.90;;;;;;5091512;28;20204;-67
2022/11/27 22:53:08;;;;;;;4.90;3.90;;;1.30;99.90;;;;;;5091612;28;20211;-66
2022/11/27 22:55:35;;;;;;;5.67;4.37;;;1.20;99.90;;;;;;5091624;28;20694;-66
2022/11/27 22:58:02;;;;;;;5.40;4.53;;;1.20;99.90;;;;;;5090435;28;20205;-65
2022/11/27 23:00:29;;;;;;;7.37;5.67;;;1.20;99.90;;;;;;5083707;28;20243;-67
2022/11/27 23:02:56;;;;;;;9.10;5.60;;;1.10;99.90;;;;;;5082981;28;20213;-67
2022/11/27 23:05:22;;;;;;;6.07;4.80;;;1.10;99.90;;;;;;5090051;28;20193;-64
2022/11/27 23:07:49;;;;;;;6.57;5.37;;;1.10;99.90;;;;;;5089692;28;20208;-66
2022/11/27 23:10:17;;;;;;;6.33;4.90;;;1.10;99.90;;;;;;5064688;28;20201;-66
2022/11/27 23:12:44;;;;;;;6.40;4.70;;;1.10;99.90;;;;;;5072004;28;20205;-66
2022/11/27 23:15:11;;;;;;;5.30;4.20;;;1.20;99.90;;;;;;5074197;28;20200;-65
2022/11/27 23:17:38;;;;;;;4.80;4.30;;;1.20;99.90;;;;;;5073295;28;20661;-65
2022/11/27 23:20:06;;;;;;;5.20;4.40;;;1.20;99.90;;;;;;5074085;28;20730;-66
2022/11/27 23:22:33;;;;;;;6.40;4.87;;;1.10;99.90;;;;;;5075042;28;20210;-64
